createdAt,value
2018-10-01T00:00:32.170Z,6.33
2018-10-01T00:02:44.357Z,5.83
2018-10-01T00:04:56.549Z,6.20
2018-10-01T00:07:08.735Z,5.67
2018-10-01T00:09:20.953Z,5.27
2018-10-01T00:11:33.154Z,5.20
2018-10-01T00:13:45.363Z,5.77
2018-10-01T00:15:57.568Z,5.83
2018-10-01T00:18:09.763Z,6.03
2018-10-01T00:20:27.628Z,6.53
2018-10-01T00:22:48.711Z,6.07
2018-10-01T00:25:00.907Z,6.40
2018-10-01T00:27:13.160Z,6.10
2018-10-01T00:29:25.319Z,5.23
2018-10-01T00:31:37.524Z,6.00
2018-10-01T00:33:49.761Z,6.57
2018-10-01T00:36:01.992Z,6.20
2018-10-01T00:38:14.253Z,6.53
2018-10-01T00:40:26.396Z,5.60
2018-10-01T00:42:38.664Z,6.03
2018-10-01T00:44:50.873Z,7.00
2018-10-01T00:47:03.055Z,7.13
2018-10-01T00:49:15.231Z,6.90
2018-10-01T00:51:27.475Z,5.67
2018-10-01T00:53:39.648Z,6.93
2018-10-01T00:55:51.832Z,7.10
2018-10-01T00:58:04.064Z,7.80
2018-10-01T01:00:16.254Z,7.43
2018-10-01T01:02:28.456Z,7.50
2018-10-01T01:04:40.688Z,7.13
2018-10-01T01:06:52.896Z,6.80
2018-10-01T01:09:06.298Z,6.93
2018-10-01T01:11:18.480Z,7.30
2018-10-01T01:13:30.676Z,7.10
2018-10-01T01:15:42.923Z,7.30
2018-10-01T01:17:55.148Z,7.83
2018-10-01T01:20:07.349Z,7.70
2018-10-01T01:22:19.535Z,6.70
2018-10-01T01:24:31.729Z,8.40
2018-10-01T01:26:43.955Z,9.03
2018-10-01T01:28:56.139Z,8.40
2018-10-01T01:31:08.352Z,8.73
2018-10-01T01:33:20.550Z,8.27
2018-10-01T01:35:32.731Z,8.43
2018-10-01T01:37:44.913Z,8.47
2018-10-01T01:39:57.123Z,8.87
2018-10-01T01:42:09.356Z,7.57
2018-10-01T01:44:21.557Z,6.80
2018-10-01T01:46:33.847Z,8.53
2018-10-01T01:48:46.037Z,7.83
2018-10-01T01:50:58.274Z,6.47
2018-10-01T01:53:10.574Z,8.77
2018-10-01T01:55:22.775Z,9.13
2018-10-01T01:57:34.990Z,8.73
2018-10-01T01:59:47.166Z,8.33
2018-10-01T02:01:59.418Z,8.83
2018-10-01T02:04:11.595Z,8.53
2018-10-01T02:06:23.815Z,9.33
2018-10-01T02:08:36.179Z,9.10
2018-10-01T02:10:48.358Z,8.43
2018-10-01T02:13:00.572Z,7.97
2018-10-01T02:15:12.754Z,7.97
2018-10-01T02:17:24.950Z,8.33
2018-10-01T02:19:37.160Z,8.07
2018-10-01T02:21:49.408Z,7.93
2018-10-01T02:24:01.587Z,7.77
2018-10-01T02:26:13.762Z,7.63
2018-10-01T02:28:25.947Z,7.97
2018-10-01T02:30:38.130Z,8.13
2018-10-01T02:32:50.329Z,8.73
2018-10-01T02:35:02.564Z,8.67
2018-10-01T02:37:14.824Z,8.50
2018-10-01T02:39:27.127Z,10.57
2018-10-01T02:41:39.367Z,10.60
2018-10-01T02:43:51.583Z,9.53
2018-10-01T02:46:03.836Z,10.97
2018-10-01T02:48:16.023Z,11.37
2018-10-01T02:50:28.211Z,10.93
2018-10-01T02:52:45.943Z,11.57
2018-10-01T02:54:58.202Z,11.30
2018-10-01T02:57:10.407Z,10.73
2018-10-01T02:59:22.606Z,9.93
2018-10-01T03:01:34.783Z,9.50
2018-10-01T03:03:46.955Z,11.23
2018-10-01T03:05:59.231Z,11.07
2018-10-01T03:08:11.471Z,11.17
2018-10-01T03:10:23.647Z,11.30
2018-10-01T03:12:35.895Z,11.83
2018-10-01T03:14:48.077Z,11.00
2018-10-01T03:17:00.268Z,10.07
2018-10-01T03:19:12.459Z,9.83
2018-10-01T03:21:24.748Z,11.47
2018-10-01T03:23:36.867Z,10.87
2018-10-01T03:25:49.044Z,11.33
2018-10-01T03:28:01.367Z,10.03
2018-10-01T03:30:13.584Z,9.60
2018-10-01T03:32:25.890Z,8.80
2018-10-01T03:34:38.094Z,9.23
2018-10-01T03:36:50.276Z,9.57
2018-10-01T03:39:02.657Z,8.27
2018-10-01T03:41:14.859Z,7.70
2018-10-01T03:43:27.099Z,8.30
2018-10-01T03:45:39.298Z,8.07
2018-10-01T03:47:51.519Z,8.20
2018-10-01T03:50:03.763Z,7.63
2018-10-01T03:52:15.946Z,7.57
2018-10-01T03:54:28.178Z,6.83
2018-10-01T03:56:40.394Z,7.60
2018-10-01T03:58:52.600Z,6.87
2018-10-01T04:01:04.859Z,6.10
2018-10-01T04:03:17.102Z,6.77
2018-10-01T04:05:29.288Z,7.20
2018-10-01T04:07:41.603Z,7.00
2018-10-01T04:09:53.852Z,5.90
2018-10-01T04:12:06.082Z,6.13
2018-10-01T04:14:18.300Z,6.80
2018-10-01T04:16:30.478Z,6.33
2018-10-01T04:18:42.690Z,6.70
2018-10-01T04:20:54.903Z,5.37
2018-10-01T04:23:07.159Z,6.63
2018-10-01T04:25:19.349Z,6.20
2018-10-01T04:27:31.756Z,5.70
2018-10-01T04:29:43.972Z,6.37
2018-10-01T04:31:56.147Z,6.50
2018-10-01T04:34:08.363Z,6.77
2018-10-01T04:36:20.656Z,5.73
2018-10-01T04:38:32.868Z,6.60
2018-10-01T04:40:45.076Z,6.13
2018-10-01T04:42:57.316Z,5.83
2018-10-01T04:45:09.535Z,5.93
2018-10-01T04:47:22.076Z,5.43
2018-10-01T04:49:34.276Z,5.60
2018-10-01T04:51:46.481Z,5.13
2018-10-01T04:53:58.698Z,5.83
2018-10-01T04:56:10.910Z,5.97
2018-10-01T04:58:24.063Z,5.30
2018-10-01T05:00:36.151Z,6.13
2018-10-01T05:02:48.343Z,5.67
2018-10-01T05:05:00.542Z,5.70
2018-10-01T05:07:12.850Z,6.13
2018-10-01T05:09:25.024Z,5.57
2018-10-01T05:11:37.188Z,5.50
2018-10-01T05:13:49.386Z,5.93
2018-10-01T05:16:01.584Z,5.80
2018-10-01T05:18:13.959Z,5.80
2018-10-01T05:20:26.190Z,5.83
2018-10-01T05:22:38.411Z,6.17
2018-10-01T05:24:50.646Z,5.93
2018-10-01T05:27:02.891Z,6.07
2018-10-01T05:29:15.046Z,6.23
2018-10-01T05:31:27.239Z,5.97
2018-10-01T05:33:39.429Z,5.80
2018-10-01T05:35:51.654Z,6.33
2018-10-01T05:38:03.864Z,6.23
2018-10-01T05:40:16.100Z,6.30
2018-10-01T05:42:28.311Z,5.47
2018-10-01T05:44:40.499Z,5.83
2018-10-01T05:46:52.730Z,5.90
2018-10-01T05:49:05.114Z,5.53
2018-10-01T05:51:17.282Z,5.30
2018-10-01T05:53:29.467Z,5.93
2018-10-01T05:55:41.650Z,5.70
2018-10-01T05:57:53.905Z,5.70
2018-10-01T06:00:06.180Z,6.60
2018-10-01T06:02:18.823Z,5.47
2018-10-01T06:04:31.051Z,6.17
2018-10-01T06:06:43.258Z,6.33
2018-10-01T06:08:55.475Z,6.20
2018-10-01T06:11:07.751Z,5.80
2018-10-01T06:13:19.939Z,6.00
2018-10-01T06:15:32.176Z,6.47
2018-10-01T06:17:44.413Z,5.97
2018-10-01T06:19:56.643Z,6.83
2018-10-01T06:22:08.933Z,7.13
2018-10-01T06:24:21.154Z,6.73
2018-10-01T06:26:33.350Z,8.03
2018-10-01T06:28:45.523Z,7.37
2018-10-01T06:30:57.694Z,7.87
2018-10-01T06:33:09.927Z,7.80
2018-10-01T06:35:22.199Z,8.63
2018-10-01T06:37:34.378Z,8.33
2018-10-01T06:39:46.575Z,8.27
2018-10-01T06:41:58.899Z,8.30
2018-10-01T06:44:11.035Z,9.13
2018-10-01T06:46:23.246Z,8.30
2018-10-01T06:48:35.490Z,8.70
2018-10-01T06:50:47.700Z,9.53
2018-10-01T06:52:59.977Z,9.53
2018-10-01T06:55:12.166Z,8.87
2018-10-01T06:57:24.427Z,9.70
2018-10-01T06:59:36.580Z,10.50
2018-10-01T07:01:48.783Z,10.70
2018-10-01T07:04:01.004Z,10.33
2018-10-01T07:06:13.223Z,10.00
2018-10-01T07:08:25.452Z,11.27
2018-10-01T07:10:37.645Z,10.87
2018-10-01T07:12:49.838Z,11.40
2018-10-01T07:15:02.089Z,11.97
2018-10-01T07:17:14.443Z,12.90
2018-10-01T07:19:26.614Z,11.97
2018-10-01T07:21:38.818Z,12.67
2018-10-01T07:23:51.183Z,12.20
2018-10-01T07:26:03.436Z,12.53
2018-10-01T07:28:15.632Z,11.83
2018-10-01T07:30:27.856Z,13.43
2018-10-01T07:32:40.019Z,13.47
2018-10-01T07:34:52.533Z,13.50
2018-10-01T07:37:04.775Z,14.37
2018-10-01T07:39:17.021Z,13.97
2018-10-01T07:41:29.220Z,13.20
2018-10-01T07:43:41.443Z,14.50
2018-10-01T07:45:53.661Z,15.03
2018-10-01T07:48:05.957Z,13.50
2018-10-01T07:50:18.154Z,14.63
2018-10-01T07:52:30.309Z,15.93
2018-10-01T07:54:42.493Z,15.93
2018-10-01T07:56:54.732Z,16.00
2018-10-01T07:59:07.011Z,16.10
2018-10-01T08:01:19.243Z,16.30
2018-10-01T08:03:31.510Z,16.00
2018-10-01T08:05:43.714Z,15.60
2018-10-01T08:07:55.983Z,14.97
2018-10-01T08:10:08.223Z,15.53
2018-10-01T08:12:20.457Z,15.10
2018-10-01T08:14:32.681Z,15.90
2018-10-01T08:16:44.911Z,15.80
2018-10-01T08:18:57.148Z,16.70
2018-10-01T08:21:09.347Z,15.90
2018-10-01T08:23:21.636Z,15.13
2018-10-01T08:25:33.775Z,15.47
2018-10-01T08:27:46.035Z,15.90
2018-10-01T08:29:58.377Z,15.17
2018-10-01T08:32:10.470Z,15.93
2018-10-01T08:34:22.630Z,15.33
2018-10-01T08:36:34.904Z,14.97
2018-10-01T08:38:47.261Z,15.67
2018-10-01T08:40:59.504Z,16.33
2018-10-01T08:43:11.634Z,16.87
2018-10-01T08:45:23.846Z,16.60
2018-10-01T08:47:36.267Z,14.83
2018-10-01T08:49:51.926Z,14.47
2018-10-01T08:52:39.495Z,15.97
2018-10-01T08:54:51.801Z,17.07
2018-10-01T08:57:04.069Z,16.60
2018-10-01T08:59:16.324Z,18.00
2018-10-01T09:01:28.564Z,17.10
2018-10-01T09:03:40.762Z,16.27
2018-10-01T09:05:52.975Z,16.90
2018-10-01T09:08:05.237Z,17.53
2018-10-01T09:10:17.371Z,17.00
2018-10-01T09:12:29.586Z,16.23
2018-10-01T09:14:41.816Z,17.43
2018-10-01T09:16:54.058Z,16.70
2018-10-01T09:19:06.255Z,16.40
2018-10-01T09:21:18.598Z,16.47
2018-10-01T09:23:31.107Z,16.77
2018-10-01T09:25:43.352Z,16.10
2018-10-01T09:27:55.599Z,16.30
2018-10-01T09:30:07.848Z,16.60
2018-10-01T09:32:20.081Z,16.90
2018-10-01T09:34:32.359Z,17.27
2018-10-01T09:36:44.562Z,16.03
2018-10-01T09:38:56.751Z,18.10
2018-10-01T09:41:09.001Z,15.97
2018-10-01T09:43:21.291Z,14.80
2018-10-01T09:45:33.496Z,18.00
2018-10-01T09:47:45.839Z,16.67
2018-10-01T09:49:58.076Z,15.57
2018-10-01T09:52:10.303Z,16.87
2018-10-01T09:54:22.510Z,16.73
2018-10-01T09:56:34.751Z,16.70
2018-10-01T09:58:46.939Z,16.23
2018-10-01T10:01:04.928Z,16.77
2018-10-01T10:03:17.212Z,16.50
2018-10-01T10:05:29.419Z,17.27
2018-10-01T10:07:41.639Z,16.20
2018-10-01T10:09:53.844Z,15.93
2018-10-01T10:12:06.074Z,17.00
2018-10-01T10:14:18.370Z,16.23
2018-10-01T10:16:30.588Z,17.07
2018-10-01T10:18:42.762Z,15.20
2018-10-01T10:20:55.011Z,16.33
2018-10-01T10:23:11.670Z,16.20
2018-10-01T10:25:27.751Z,15.53
2018-10-01T10:27:43.952Z,15.10
2018-10-01T10:29:56.169Z,14.67
2018-10-01T10:32:08.429Z,14.70
2018-10-01T10:34:20.632Z,15.80
2018-10-01T10:36:32.854Z,15.27
2018-10-01T10:38:45.102Z,14.40
2018-10-01T10:40:57.303Z,12.53
2018-10-01T10:43:09.578Z,13.80
2018-10-01T10:45:21.832Z,13.23
2018-10-01T10:47:34.058Z,13.23
2018-10-01T10:49:46.310Z,12.80
2018-10-01T10:51:58.535Z,11.27
2018-10-01T10:54:10.767Z,11.77
2018-10-01T10:56:22.923Z,9.87
2018-10-01T10:58:35.152Z,12.17
2018-10-01T11:00:47.427Z,11.53
2018-10-01T11:02:59.616Z,10.97
2018-10-01T11:05:11.827Z,11.50
2018-10-01T11:07:24.072Z,9.87
2018-10-01T11:09:36.316Z,9.77
2018-10-01T11:11:48.504Z,10.20
2018-10-01T11:14:00.740Z,9.33
2018-10-01T11:16:12.914Z,8.80
2018-10-01T11:18:25.148Z,8.47
2018-10-01T11:20:37.409Z,9.07
2018-10-01T11:22:49.641Z,8.07
2018-10-01T11:25:01.884Z,8.63
2018-10-01T11:27:14.213Z,8.83
2018-10-01T11:29:26.349Z,7.77
2018-10-01T11:31:38.632Z,8.17
2018-10-01T11:33:50.811Z,7.70
2018-10-01T11:36:03.061Z,7.67
2018-10-01T11:38:15.353Z,8.10
2018-10-01T11:40:27.536Z,6.83
2018-10-01T11:42:39.775Z,7.63
2018-10-01T11:44:52.024Z,7.67
2018-10-01T11:47:04.281Z,8.07
2018-10-01T11:49:16.469Z,6.53
2018-10-01T11:51:28.774Z,7.07
2018-10-01T11:53:40.986Z,7.13
2018-10-01T11:55:53.299Z,6.97
2018-10-01T11:58:05.558Z,6.03
2018-10-01T12:00:18.331Z,6.97
2018-10-01T12:02:30.637Z,6.57
2018-10-01T12:04:42.892Z,5.93
2018-10-01T12:06:55.147Z,6.80
2018-10-01T12:09:08.868Z,6.20
2018-10-01T12:11:21.052Z,6.30
2018-10-01T12:13:33.302Z,6.33
2018-10-01T12:15:45.582Z,6.57
2018-10-01T12:17:57.782Z,6.27
2018-10-01T12:20:09.871Z,6.97
2018-10-01T12:22:22.117Z,7.63
2018-10-01T12:24:34.327Z,6.13
2018-10-01T12:26:46.592Z,5.90
2018-10-01T12:28:58.922Z,7.00
2018-10-01T12:31:11.117Z,6.80
2018-10-01T12:33:23.322Z,6.87
2018-10-01T12:35:35.565Z,5.80
2018-10-01T12:37:48.680Z,5.77
2018-10-01T12:40:00.923Z,5.63
2018-10-01T12:42:13.259Z,4.60
2018-10-01T12:44:25.492Z,4.80
2018-10-01T12:46:37.747Z,4.27
2018-10-01T12:48:49.950Z,4.17
2018-10-01T12:51:02.246Z,4.20
2018-10-01T12:53:14.718Z,3.80
2018-10-01T12:55:26.938Z,4.30
2018-10-01T12:57:39.230Z,3.03
2018-10-01T12:59:51.440Z,3.53
2018-10-01T13:02:03.738Z,3.17
2018-10-01T13:04:15.960Z,2.57
2018-10-01T13:06:28.286Z,2.80
2018-10-01T13:08:40.428Z,2.50
2018-10-01T13:10:52.670Z,2.80
2018-10-01T13:13:04.914Z,3.23
2018-10-01T13:15:17.211Z,2.60
2018-10-01T13:17:29.456Z,2.50
2018-10-01T13:19:41.788Z,2.80
2018-10-01T13:21:54.027Z,2.57
2018-10-01T13:24:06.472Z,2.73
2018-10-01T13:26:18.622Z,2.70
2018-10-01T13:28:30.880Z,3.00
2018-10-01T13:30:43.323Z,3.07
2018-10-01T13:32:55.548Z,2.67
2018-10-01T13:35:07.839Z,2.93
2018-10-01T13:37:20.088Z,3.00
2018-10-01T13:39:32.385Z,3.00
2018-10-01T13:41:44.683Z,3.00
2018-10-01T13:43:56.911Z,3.30
2018-10-01T13:46:09.217Z,2.87
2018-10-01T13:48:21.516Z,3.03
2018-10-01T13:50:33.699Z,2.70
2018-10-01T13:52:45.995Z,3.43
2018-10-01T13:54:58.240Z,3.60
2018-10-01T13:57:10.533Z,3.83
2018-10-01T13:59:22.773Z,4.10
2018-10-01T14:01:35.052Z,4.47
2018-10-01T14:03:47.280Z,3.87
2018-10-01T14:05:59.531Z,4.47
2018-10-01T14:08:11.780Z,5.10
2018-10-01T14:10:24.050Z,4.70
2018-10-01T14:12:36.297Z,4.03
2018-10-01T14:14:48.571Z,3.97
2018-10-01T14:17:00.780Z,4.00
2018-10-01T14:19:13.074Z,4.90
2018-10-01T14:21:25.286Z,4.37
2018-10-01T14:23:37.568Z,4.30
2018-10-01T14:25:49.808Z,4.57
2018-10-01T14:28:02.055Z,4.30
2018-10-01T14:30:14.351Z,3.43
2018-10-01T14:32:26.579Z,3.20
2018-10-01T14:34:38.867Z,3.63
2018-10-01T14:36:51.198Z,3.00
2018-10-01T14:39:04.735Z,3.10
2018-10-01T14:41:16.956Z,2.53
2018-10-01T14:43:29.221Z,2.70
2018-10-01T14:45:41.511Z,2.40
2018-10-01T14:47:53.784Z,2.40
2018-10-01T14:50:06.112Z,2.10
2018-10-01T14:52:18.388Z,2.60
2018-10-01T14:54:30.697Z,2.40
2018-10-01T14:56:42.948Z,2.33
2018-10-01T14:58:55.154Z,2.33
2018-10-01T15:01:07.456Z,1.47
2018-10-01T15:03:19.748Z,1.60
2018-10-01T15:05:32.036Z,1.67
2018-10-01T15:07:44.244Z,1.63
2018-10-01T15:09:56.669Z,1.80
2018-10-01T15:12:08.989Z,2.03
2018-10-01T15:14:21.264Z,1.73
2018-10-01T15:16:33.764Z,2.50
2018-10-01T15:18:46.034Z,2.20
2018-10-01T15:20:58.290Z,1.80
2018-10-01T15:23:10.566Z,1.50
2018-10-01T15:25:22.863Z,1.90
2018-10-01T15:27:35.175Z,1.30
2018-10-01T15:29:47.440Z,1.80
2018-10-01T15:31:59.767Z,1.70
2018-10-01T15:34:12.067Z,1.17
2018-10-01T15:36:24.397Z,1.23
2018-10-01T15:38:36.724Z,1.10
2018-10-01T15:40:49.038Z,1.10
2018-10-01T15:43:01.334Z,1.60
2018-10-01T15:45:13.603Z,1.67
2018-10-01T15:47:25.911Z,1.40
2018-10-01T15:49:38.172Z,1.70
2018-10-01T15:51:50.558Z,1.37
2018-10-01T15:54:02.835Z,1.33
2018-10-01T15:56:15.137Z,1.50
2018-10-01T15:58:27.402Z,1.50
2018-10-01T16:00:39.724Z,1.47
2018-10-01T16:02:52.000Z,1.53
2018-10-01T16:05:04.494Z,1.47
2018-10-01T16:07:16.763Z,1.73
2018-10-01T16:09:29.028Z,1.73
2018-10-01T16:11:41.304Z,1.23
2018-10-01T16:13:53.595Z,1.20
2018-10-01T16:16:06.269Z,1.57
2018-10-01T16:18:18.690Z,1.50
2018-10-01T16:22:56.300Z,1.60
2018-10-01T16:25:08.648Z,1.60
2018-10-01T16:27:20.906Z,1.70
2018-10-01T16:29:33.194Z,1.60
2018-10-01T16:31:45.507Z,1.10
2018-10-01T16:33:57.796Z,1.30
2018-10-01T16:36:10.073Z,1.30
2018-10-01T16:38:22.329Z,1.37
2018-10-01T16:40:34.651Z,0.90
2018-10-01T16:42:46.931Z,1.43
2018-10-01T16:44:59.254Z,1.30
2018-10-01T16:47:11.539Z,1.30
2018-10-01T16:49:23.839Z,1.70
2018-10-01T16:51:36.149Z,1.33
2018-10-01T16:53:48.395Z,1.40
2018-10-01T16:56:00.662Z,1.20
2018-10-01T16:58:12.957Z,1.20
2018-10-01T17:00:25.149Z,1.00
2018-10-01T17:02:37.372Z,1.30
2018-10-01T17:04:49.685Z,1.50
2018-10-01T17:07:01.955Z,1.50
2018-10-01T17:09:14.170Z,1.27
2018-10-01T17:11:26.743Z,1.83
2018-10-01T17:13:39.137Z,1.77
2018-10-01T17:15:51.819Z,1.80
2018-10-01T17:18:04.091Z,2.00
2018-10-01T17:20:16.348Z,2.10
2018-10-01T17:22:28.699Z,2.03
2018-10-01T17:24:40.974Z,2.00
2018-10-01T17:26:53.360Z,2.10
2018-10-01T17:29:05.696Z,2.40
2018-10-01T17:31:17.998Z,2.30
2018-10-01T17:33:30.254Z,1.80
2018-10-01T17:35:42.454Z,1.63
2018-10-01T17:37:54.739Z,1.90
2018-10-01T17:40:07.064Z,1.70
2018-10-01T17:42:19.419Z,2.10
2018-10-01T17:44:31.631Z,1.53
2018-10-01T17:46:43.833Z,1.63
2018-10-01T17:48:56.124Z,1.70
2018-10-01T17:51:08.361Z,1.40
2018-10-01T17:53:20.739Z,1.67
2018-10-01T17:55:32.956Z,2.13
2018-10-01T17:57:45.260Z,2.70
2018-10-01T17:59:57.649Z,2.00
2018-10-01T18:02:09.844Z,2.23
2018-10-01T18:04:22.127Z,1.90
2018-10-01T18:06:34.381Z,1.90
2018-10-01T18:08:46.704Z,1.63
2018-10-01T18:10:59.607Z,1.67
2018-10-01T18:13:11.911Z,1.70
2018-10-01T18:15:24.163Z,2.17
2018-10-01T18:17:36.382Z,2.77
2018-10-01T18:19:48.681Z,2.70
2018-10-01T18:22:00.982Z,3.03
2018-10-01T18:24:13.256Z,2.43
2018-10-01T18:26:25.637Z,2.20
2018-10-01T18:28:37.939Z,1.90
2018-10-01T18:30:56.618Z,2.10
2018-10-01T18:33:08.879Z,1.80
2018-10-01T18:35:21.127Z,1.90
2018-10-01T18:37:33.435Z,2.20
2018-10-01T18:39:45.588Z,2.07
2018-10-01T18:41:57.955Z,1.40
2018-10-01T18:44:10.253Z,1.60
2018-10-01T18:46:22.536Z,1.50
2018-10-01T18:48:34.808Z,1.27
2018-10-01T18:50:47.028Z,1.40
2018-10-01T18:52:59.367Z,1.30
2018-10-01T18:55:11.669Z,1.00
2018-10-01T18:57:23.974Z,1.20
2018-10-01T18:59:36.251Z,1.33
2018-10-01T19:01:48.464Z,1.60
2018-10-01T19:04:00.873Z,1.30
2018-10-01T19:06:13.163Z,1.30
2018-10-01T19:08:25.447Z,1.50
2018-10-01T19:10:37.771Z,1.40
2018-10-01T19:12:50.053Z,1.70
2018-10-01T19:15:02.434Z,1.30
2018-10-01T19:17:14.666Z,1.23
2018-10-01T19:19:26.991Z,1.80
2018-10-01T19:21:39.327Z,1.50
2018-10-01T19:23:51.659Z,1.50
2018-10-01T19:26:04.179Z,1.30
2018-10-01T19:28:16.289Z,1.60
2018-10-01T19:30:28.895Z,1.40
2018-10-01T19:32:41.131Z,1.20
2018-10-01T19:34:53.430Z,1.80
2018-10-01T19:37:05.724Z,1.40
2018-10-01T19:39:18.064Z,1.30
2018-10-01T19:41:30.280Z,1.10
2018-10-01T19:43:42.543Z,1.43
2018-10-01T19:45:54.852Z,1.23
2018-10-01T19:48:07.144Z,1.70
2018-10-01T19:50:19.383Z,1.40
2018-10-01T19:52:31.666Z,1.30
2018-10-01T19:54:43.898Z,1.43
2018-10-01T19:56:56.202Z,1.73
2018-10-01T19:59:08.428Z,1.37
2018-10-01T20:01:20.715Z,1.10
2018-10-01T20:03:32.980Z,1.80
2018-10-01T20:05:45.223Z,1.70
2018-10-01T20:07:57.487Z,1.07
2018-10-01T20:10:09.876Z,1.43
2018-10-01T20:12:22.109Z,1.40
2018-10-01T20:14:34.368Z,1.30
2018-10-01T20:16:46.677Z,1.70
2018-10-01T20:18:58.871Z,1.60
2018-10-01T20:21:11.128Z,1.40
2018-10-01T20:23:23.455Z,1.63
2018-10-01T20:25:35.848Z,1.70
2018-10-01T20:27:48.367Z,1.80
2018-10-01T20:30:00.470Z,1.87
2018-10-01T20:32:12.679Z,1.77
2018-10-01T20:34:24.950Z,1.60
2018-10-01T20:36:37.228Z,2.00
2018-10-01T20:38:49.526Z,1.83
2018-10-01T20:41:01.887Z,1.70
2018-10-01T20:43:14.171Z,1.90
2018-10-01T20:45:26.394Z,1.70
2018-10-01T20:47:38.724Z,1.90
2018-10-01T20:49:50.957Z,2.30
2018-10-01T20:52:03.241Z,1.67
2018-10-01T20:54:15.474Z,1.60
2018-10-01T20:56:27.758Z,1.33
2018-10-01T20:58:40.025Z,2.10
2018-10-01T21:00:52.274Z,1.70
2018-10-01T21:03:04.672Z,1.73
2018-10-01T21:05:16.942Z,2.10
2018-10-01T21:07:29.163Z,1.37
2018-10-01T21:09:41.377Z,2.23
2018-10-01T21:11:53.609Z,1.67
2018-10-01T21:14:05.930Z,1.87
2018-10-01T21:16:18.147Z,1.97
2018-10-01T21:18:30.352Z,2.27
2018-10-01T21:20:42.614Z,1.60
2018-10-01T21:22:54.842Z,2.20
2018-10-01T21:25:07.203Z,2.10
2018-10-01T21:27:19.450Z,1.87
2018-10-01T21:29:31.674Z,2.23
2018-10-01T21:31:43.922Z,2.13
2018-10-01T21:33:56.201Z,2.10
2018-10-01T21:36:08.478Z,2.03
2018-10-01T21:38:20.688Z,1.73
2018-10-01T21:40:33.003Z,1.90
2018-10-01T21:42:45.627Z,2.00
2018-10-01T21:44:58.820Z,2.17
2018-10-01T21:47:11.086Z,2.13
2018-10-01T21:49:23.343Z,1.93
2018-10-01T21:51:35.566Z,2.00
2018-10-01T21:53:47.891Z,2.10
2018-10-01T21:56:00.115Z,2.13
2018-10-01T21:58:12.351Z,2.03
2018-10-01T22:00:24.740Z,2.07
2018-10-01T22:02:37.011Z,2.03
2018-10-01T22:04:49.312Z,1.70
2018-10-01T22:07:01.533Z,1.90
2018-10-01T22:09:13.782Z,1.90
2018-10-01T22:11:26.020Z,2.10
2018-10-01T22:13:38.257Z,1.93
2018-10-01T22:15:50.456Z,1.63
2018-10-01T22:18:02.671Z,1.83
2018-10-01T22:20:14.951Z,2.30
2018-10-01T22:22:27.180Z,2.00
2018-10-01T22:24:39.426Z,2.30
2018-10-01T22:26:51.654Z,2.13
2018-10-01T22:29:03.948Z,1.83
2018-10-01T22:31:16.178Z,2.30
2018-10-01T22:33:28.457Z,2.13
2018-10-01T22:35:40.763Z,2.60
2018-10-01T22:37:52.989Z,2.37
2018-10-01T22:40:05.291Z,2.07
2018-10-01T22:42:17.527Z,2.20
2018-10-01T22:44:29.744Z,2.10
2018-10-01T22:46:41.980Z,2.63
2018-10-01T22:48:54.188Z,2.23
2018-10-01T22:51:06.454Z,1.97
2018-10-01T22:53:18.730Z,2.20
2018-10-01T22:55:30.971Z,2.23
2018-10-01T22:57:43.201Z,2.30
2018-10-01T22:59:55.400Z,2.40
2018-10-01T23:02:07.628Z,2.40
2018-10-01T23:04:19.815Z,2.57
2018-10-01T23:06:32.026Z,2.37
2018-10-01T23:08:44.238Z,2.73
2018-10-01T23:10:56.591Z,2.60
2018-10-01T23:13:08.816Z,2.53
2018-10-01T23:15:21.122Z,2.63
2018-10-01T23:17:33.342Z,2.80
2018-10-01T23:19:45.581Z,2.70
2018-10-01T23:21:57.835Z,2.67
2018-10-01T23:24:10.056Z,2.00
2018-10-01T23:26:22.283Z,2.67
2018-10-01T23:28:34.490Z,2.57
2018-10-01T23:30:46.716Z,2.77
2018-10-01T23:32:58.978Z,2.70
2018-10-01T23:35:11.192Z,3.10
2018-10-01T23:37:23.431Z,2.63
2018-10-01T23:39:35.695Z,2.77
2018-10-01T23:41:47.960Z,2.60
2018-10-01T23:44:00.155Z,3.23
2018-10-01T23:46:12.335Z,2.83
2018-10-01T23:48:24.542Z,2.70
2018-10-01T23:50:36.786Z,2.93
2018-10-01T23:52:49.006Z,2.73
2018-10-01T23:55:01.207Z,2.27
2018-10-01T23:57:13.423Z,2.47
2018-10-01T23:59:25.662Z,2.57
